createdAt,value
2022-12-18T00:00:10.207Z,23.50
2022-12-18T00:02:38.555Z,28.00
2022-12-18T00:05:07.431Z,29.00
2022-12-18T00:07:35.717Z,29.25
2022-12-18T00:10:04.019Z,29.00
2022-12-18T00:12:32.306Z,27.50
2022-12-18T00:15:00.600Z,27.75
2022-12-18T00:17:28.891Z,26.50
2022-12-18T00:19:57.746Z,30.75
2022-12-18T00:22:26.038Z,27.00
2022-12-18T00:24:54.342Z,32.50
2022-12-18T00:27:22.617Z,30.00
2022-12-18T00:29:51.233Z,29.75
2022-12-18T00:32:19.974Z,29.50
2022-12-18T00:34:48.248Z,30.75
2022-12-18T00:37:20.048Z,32.00
2022-12-18T00:39:51.291Z,25.25
2022-12-18T00:42:37.816Z,24.75
2022-12-18T00:45:12.088Z,26.00
2022-12-18T00:47:41.364Z,28.50
2022-12-18T00:50:11.138Z,29.00
2022-12-18T00:52:39.440Z,27.50
2022-12-18T00:55:08.101Z,30.25
2022-12-18T00:57:36.485Z,27.75
2022-12-18T01:00:07.627Z,30.00
2022-12-18T01:02:36.081Z,30.00
2022-12-18T01:05:04.515Z,26.25
2022-12-18T01:07:32.849Z,23.50
2022-12-18T01:10:01.263Z,23.25
2022-12-18T01:12:29.628Z,26.00
2022-12-18T01:14:57.970Z,26.00
2022-12-18T01:17:26.264Z,28.25
2022-12-18T01:19:54.550Z,25.00
2022-12-18T01:22:22.864Z,26.00
2022-12-18T01:24:51.216Z,25.00
2022-12-18T01:27:19.664Z,24.25
2022-12-18T01:29:47.975Z,27.25
2022-12-18T01:32:16.258Z,25.50
2022-12-18T01:34:44.682Z,24.75
2022-12-18T01:37:13.045Z,23.50
2022-12-18T01:39:41.393Z,22.25
2022-12-18T01:42:17.251Z,26.50
2022-12-18T01:45:06.303Z,26.00
2022-12-18T01:47:40.525Z,27.00
2022-12-18T01:50:10.896Z,26.00
2022-12-18T01:52:40.903Z,24.75
2022-12-18T01:55:10.444Z,23.25
2022-12-18T01:57:40.845Z,21.50
2022-12-18T02:00:29.869Z,24.50
2022-12-18T02:02:58.492Z,22.25
2022-12-18T02:05:43.317Z,17.75
2022-12-18T02:08:28.453Z,18.25
2022-12-18T02:11:13.350Z,19.00
2022-12-18T02:14:08.770Z,22.75
2022-12-18T02:16:43.836Z,17.50
2022-12-18T02:19:38.379Z,16.75
2022-12-18T02:22:27.457Z,20.00
2022-12-18T02:25:13.700Z,21.25
2022-12-18T02:27:47.228Z,17.25
2022-12-18T02:30:16.431Z,18.50
2022-12-18T02:32:52.874Z,17.50
2022-12-18T02:35:32.740Z,15.75
2022-12-18T02:38:02.143Z,20.25
2022-12-18T02:40:32.237Z,22.25
2022-12-18T02:43:16.632Z,19.25
2022-12-18T02:46:01.180Z,16.25
2022-12-18T02:48:36.110Z,18.00
2022-12-18T02:51:25.971Z,21.25
2022-12-18T02:53:58.446Z,18.25
2022-12-18T02:56:47.248Z,20.75
2022-12-18T02:59:24.098Z,18.25
2022-12-18T03:02:07.180Z,18.25
2022-12-18T03:05:03.223Z,18.75
2022-12-18T03:08:00.450Z,18.75
2022-12-18T03:10:36.503Z,18.00
2022-12-18T03:13:09.661Z,18.75
2022-12-18T03:15:44.266Z,15.75
2022-12-18T03:18:21.632Z,16.75
2022-12-18T03:20:53.563Z,18.75
2022-12-18T03:23:27.933Z,17.50
2022-12-18T03:26:07.109Z,14.25
2022-12-18T03:28:42.343Z,15.25
2022-12-18T03:31:14.501Z,15.00
2022-12-18T03:34:13.393Z,16.50
2022-12-18T03:36:41.818Z,18.75
2022-12-18T03:39:10.381Z,12.75
2022-12-18T03:42:27.879Z,16.25
2022-12-18T03:45:12.066Z,14.00
2022-12-18T03:48:00.451Z,18.75
2022-12-18T03:50:37.601Z,16.00
2022-12-18T03:53:26.351Z,19.50
2022-12-18T03:55:55.376Z,17.75
2022-12-18T03:58:27.784Z,15.00
2022-12-18T04:01:01.698Z,15.50
2022-12-18T04:03:32.164Z,16.75
2022-12-18T04:06:03.165Z,15.50
2022-12-18T04:08:32.341Z,13.50
2022-12-18T04:11:01.501Z,17.00
2022-12-18T04:13:38.655Z,18.50
2022-12-18T04:16:09.461Z,15.50
2022-12-18T04:18:38.477Z,13.00
2022-12-18T04:21:07.070Z,17.50
2022-12-18T04:23:35.386Z,15.75
2022-12-18T04:26:03.680Z,14.00
2022-12-18T04:28:32.012Z,14.75
2022-12-18T04:31:00.336Z,14.00
2022-12-18T04:33:28.770Z,17.50
2022-12-18T04:35:57.068Z,14.50
2022-12-18T04:38:25.427Z,16.50
2022-12-18T04:40:53.760Z,14.25
2022-12-18T04:43:22.377Z,17.25
2022-12-18T04:45:50.769Z,16.75
2022-12-18T04:48:19.064Z,14.75
2022-12-18T04:50:47.347Z,14.75
2022-12-18T04:53:15.950Z,15.00
2022-12-18T04:55:44.241Z,15.75
2022-12-18T04:58:12.562Z,14.25
2022-12-18T05:00:41.317Z,20.25
2022-12-18T05:03:09.679Z,15.50
2022-12-18T05:05:38.265Z,13.75
2022-12-18T05:08:07.029Z,14.00
2022-12-18T05:10:38.369Z,15.00
2022-12-18T05:13:07.639Z,12.00
2022-12-18T05:15:36.183Z,14.25
2022-12-18T05:18:05.739Z,14.50
2022-12-18T05:20:34.160Z,13.00
2022-12-18T05:23:02.478Z,13.50
2022-12-18T05:25:30.762Z,14.25
2022-12-18T05:27:59.433Z,12.75
2022-12-18T05:30:29.417Z,13.75
2022-12-18T05:32:57.753Z,14.25
2022-12-18T05:35:26.124Z,16.25
2022-12-18T05:37:54.408Z,14.25
2022-12-18T05:40:22.763Z,13.50
2022-12-18T05:42:51.144Z,15.50
2022-12-18T05:45:19.538Z,12.00
2022-12-18T05:47:47.832Z,12.50
2022-12-18T05:50:16.107Z,16.75
2022-12-18T05:52:44.460Z,11.50
2022-12-18T05:55:13.034Z,14.00
2022-12-18T05:57:41.319Z,15.00
2022-12-18T06:00:10.402Z,11.75
2022-12-18T06:02:39.051Z,15.00
2022-12-18T06:05:07.828Z,14.00
2022-12-18T06:07:36.241Z,15.75
2022-12-18T06:10:04.667Z,13.25
2022-12-18T06:12:33.163Z,13.00
2022-12-18T06:15:02.538Z,14.00
2022-12-18T06:17:34.657Z,14.25
2022-12-18T06:20:03.750Z,13.25
2022-12-18T06:22:34.113Z,15.25
2022-12-18T06:25:02.506Z,11.50
2022-12-18T06:27:30.920Z,13.00
2022-12-18T06:29:59.334Z,13.25
2022-12-18T06:32:27.940Z,15.75
2022-12-18T06:34:57.315Z,13.00
2022-12-18T06:37:28.996Z,11.75
2022-12-18T06:39:58.528Z,14.00
2022-12-18T06:42:27.401Z,12.00
2022-12-18T06:44:55.735Z,14.75
2022-12-18T06:47:24.110Z,12.00
2022-12-18T06:49:52.444Z,13.00
2022-12-18T06:52:20.747Z,10.25
2022-12-18T06:54:49.132Z,14.00
2022-12-18T06:57:17.626Z,14.25
2022-12-18T06:59:46.556Z,11.50
2022-12-18T07:02:14.964Z,11.50
2022-12-18T07:04:43.365Z,11.25
2022-12-18T07:07:11.661Z,12.75
2022-12-18T07:09:39.955Z,11.75
2022-12-18T07:12:09.798Z,12.50
2022-12-18T07:14:38.511Z,12.25
2022-12-18T07:17:06.947Z,11.00
2022-12-18T07:19:35.770Z,12.00
2022-12-18T07:22:04.203Z,11.00
2022-12-18T07:24:34.394Z,11.00
2022-12-18T07:27:03.079Z,12.25
2022-12-18T07:29:31.506Z,10.00
2022-12-18T07:31:59.875Z,12.00
2022-12-18T07:34:28.311Z,13.00
2022-12-18T07:36:56.675Z,12.50
2022-12-18T07:39:24.970Z,10.50
2022-12-18T07:42:11.603Z,11.25
2022-12-18T07:44:39.957Z,12.00
2022-12-18T07:47:12.003Z,11.50
2022-12-18T07:49:40.773Z,12.00
2022-12-18T07:52:09.248Z,12.00
2022-12-18T07:54:37.580Z,10.00
2022-12-18T07:57:21.218Z,13.00
2022-12-18T07:59:54.169Z,12.25
2022-12-18T08:02:22.521Z,12.00
2022-12-18T08:04:50.936Z,12.00
2022-12-18T08:07:19.231Z,11.25
2022-12-18T08:09:47.507Z,10.00
2022-12-18T08:12:15.857Z,12.00
2022-12-18T08:14:44.162Z,12.00
2022-12-18T08:17:12.436Z,11.25
2022-12-18T08:19:40.811Z,14.75
2022-12-18T08:22:09.108Z,14.00
2022-12-18T08:24:37.459Z,8.75
2022-12-18T08:27:29.385Z,13.25
2022-12-18T08:29:54.339Z,14.25
2022-12-18T08:32:22.755Z,13.75
2022-12-18T08:34:51.064Z,11.50
2022-12-18T08:37:19.369Z,12.00
2022-12-18T08:39:47.704Z,13.00
2022-12-18T08:42:34.316Z,11.00
2022-12-18T08:45:02.779Z,14.50
2022-12-18T08:47:31.195Z,12.50
2022-12-18T08:49:59.621Z,13.00
2022-12-18T08:52:27.964Z,13.00
2022-12-18T08:54:56.406Z,13.25
2022-12-18T08:57:24.690Z,11.50
2022-12-18T08:59:52.995Z,13.75
2022-12-18T09:02:21.889Z,13.00
2022-12-18T09:04:56.930Z,10.00
2022-12-18T09:07:25.792Z,9.00
2022-12-18T09:09:54.118Z,12.00
2022-12-18T09:12:22.485Z,11.00
2022-12-18T09:14:50.785Z,10.00
2022-12-18T09:17:19.180Z,12.75
2022-12-18T09:19:47.673Z,13.25
2022-12-18T09:22:16.049Z,10.00
2022-12-18T09:24:44.329Z,10.25
2022-12-18T09:27:12.741Z,11.50
2022-12-18T09:29:41.096Z,11.50
2022-12-18T09:32:09.451Z,13.00
2022-12-18T09:34:37.737Z,11.75
2022-12-18T09:37:06.029Z,10.75
2022-12-18T09:39:34.333Z,14.25
2022-12-18T09:42:02.889Z,13.50
2022-12-18T09:44:46.162Z,13.75
2022-12-18T09:47:25.650Z,12.50
2022-12-18T09:50:00.175Z,10.00
2022-12-18T09:52:36.440Z,11.00
2022-12-18T09:55:39.679Z,11.50
2022-12-18T09:58:27.731Z,11.50
2022-12-18T10:00:56.677Z,12.50
2022-12-18T10:03:25.818Z,13.25
2022-12-18T10:06:02.822Z,15.25
2022-12-18T10:08:51.363Z,13.00
2022-12-18T10:11:32.592Z,12.75
2022-12-18T10:14:03.472Z,24.75
2022-12-18T10:16:37.794Z,36.25
2022-12-18T10:19:30.726Z,38.25
2022-12-18T10:22:01.707Z,60.25
2022-12-18T10:25:05.961Z,50.50
2022-12-18T10:27:35.396Z,38.00
2022-12-18T10:30:14.964Z,32.00
2022-12-18T10:32:43.602Z,27.00
2022-12-18T10:35:24.554Z,18.00
2022-12-18T10:38:29.763Z,21.50
2022-12-18T10:41:07.571Z,22.25
2022-12-18T10:43:40.831Z,33.50
2022-12-18T10:46:12.278Z,35.50
2022-12-18T10:48:50.083Z,37.75
2022-12-18T10:51:44.676Z,35.25
2022-12-18T10:54:19.602Z,30.00
2022-12-18T10:56:48.356Z,32.00
2022-12-18T10:59:19.718Z,32.25
2022-12-18T11:01:58.179Z,29.00
2022-12-18T11:04:33.307Z,19.25
2022-12-18T11:07:07.630Z,21.50
2022-12-18T11:09:39.512Z,18.50
2022-12-18T11:12:30.555Z,18.25
2022-12-18T11:14:59.546Z,17.25
2022-12-18T11:17:36.777Z,18.50
2022-12-18T11:20:21.366Z,17.00
2022-12-18T11:23:25.397Z,19.50
2022-12-18T11:26:00.118Z,17.50
2022-12-18T11:28:39.659Z,17.25
2022-12-18T11:31:14.597Z,16.75
2022-12-18T11:34:11.954Z,16.50
2022-12-18T11:36:44.319Z,19.25
2022-12-18T11:39:22.917Z,22.75
2022-12-18T11:42:13.546Z,28.75
2022-12-18T11:44:54.837Z,26.75
2022-12-18T11:47:49.767Z,23.00
2022-12-18T11:50:34.561Z,21.50
2022-12-18T11:53:06.405Z,20.25
2022-12-18T11:55:55.096Z,20.00
2022-12-18T11:58:35.426Z,16.75
2022-12-18T12:01:16.911Z,17.00
2022-12-18T12:04:00.218Z,19.25
2022-12-18T12:06:50.110Z,19.00
2022-12-18T12:09:52.258Z,14.75
2022-12-18T12:12:49.027Z,17.00
2022-12-18T12:15:30.435Z,21.00
2022-12-18T12:18:11.252Z,16.75
2022-12-18T12:21:08.741Z,17.25
2022-12-18T12:23:55.538Z,14.75
2022-12-18T12:26:32.564Z,15.75
2022-12-18T12:29:14.404Z,16.75
2022-12-18T12:32:25.084Z,14.75
2022-12-18T12:35:07.786Z,19.50
2022-12-18T12:37:54.876Z,18.50
2022-12-18T12:43:29.764Z,17.25
2022-12-18T12:46:13.712Z,17.75
2022-12-18T12:49:03.652Z,16.00
2022-12-18T12:51:39.075Z,17.50
2022-12-18T12:54:18.052Z,17.00
2022-12-18T12:57:01.616Z,15.75
2022-12-18T13:00:07.591Z,17.50
2022-12-18T13:02:54.009Z,16.00
2022-12-18T13:05:49.307Z,17.75
2022-12-18T13:08:34.942Z,19.75
2022-12-18T13:11:22.937Z,26.25
2022-12-18T13:13:57.477Z,23.25
2022-12-18T13:16:29.433Z,19.50
2022-12-18T13:19:00.750Z,16.50
2022-12-18T13:21:35.693Z,15.50
2022-12-18T13:24:31.491Z,15.75
2022-12-18T13:26:59.785Z,15.25
2022-12-18T13:29:48.396Z,16.75
2022-12-18T13:32:26.238Z,14.50
2022-12-18T13:35:20.348Z,17.75
2022-12-18T13:37:55.030Z,17.50
2022-12-18T13:40:49.334Z,23.75
2022-12-18T13:43:29.548Z,18.50
2022-12-18T13:46:08.015Z,19.00
2022-12-18T13:48:40.331Z,16.25
2022-12-18T13:51:12.351Z,18.25
2022-12-18T13:54:00.506Z,15.50
2022-12-18T13:56:33.449Z,14.50
2022-12-18T13:59:24.279Z,16.00
2022-12-18T14:01:59.225Z,13.75
2022-12-18T14:04:32.871Z,15.00
2022-12-18T14:07:05.081Z,12.50
2022-12-18T14:09:40.451Z,14.75
2022-12-18T14:12:35.943Z,12.50
2022-12-18T14:15:06.207Z,14.25
2022-12-18T14:17:34.961Z,16.75
2022-12-18T14:20:03.673Z,15.25
2022-12-18T14:22:33.329Z,19.25
2022-12-18T14:25:22.589Z,19.50
2022-12-18T14:27:54.851Z,19.75
2022-12-18T14:30:26.480Z,21.25
2022-12-18T14:33:13.250Z,17.25
2022-12-18T14:35:44.230Z,19.75
2022-12-18T14:38:19.780Z,17.25
2022-12-18T14:40:48.164Z,19.75
2022-12-18T14:43:16.491Z,21.00
2022-12-18T14:45:48.454Z,22.25
2022-12-18T14:48:24.212Z,20.50
2022-12-18T14:51:18.041Z,21.00
2022-12-18T14:54:15.121Z,21.00
2022-12-18T14:57:31.220Z,19.75
2022-12-18T15:00:17.607Z,21.50
2022-12-18T15:02:47.992Z,16.75
2022-12-18T15:05:16.404Z,17.25
2022-12-18T15:07:48.993Z,17.25
2022-12-18T15:10:24.075Z,18.00
2022-12-18T15:13:10.118Z,14.00
2022-12-18T15:15:38.485Z,14.00
2022-12-18T15:18:18.701Z,17.00
2022-12-18T15:21:21.011Z,16.00
2022-12-18T15:23:54.438Z,14.50
2022-12-18T15:26:24.642Z,16.00
2022-12-18T15:29:00.364Z,17.00
2022-12-18T15:31:38.871Z,17.00
2022-12-18T15:34:10.423Z,18.00
2022-12-18T15:36:38.806Z,15.75
2022-12-18T15:39:07.542Z,15.50
2022-12-18T15:41:37.865Z,16.75
2022-12-18T15:44:27.455Z,15.25
2022-12-18T15:46:55.840Z,17.00
2022-12-18T15:49:24.145Z,17.75
2022-12-18T15:51:55.917Z,16.00
2022-12-18T15:54:44.279Z,16.50
2022-12-18T15:57:25.837Z,17.00
2022-12-18T15:59:57.088Z,19.25
2022-12-18T16:02:26.118Z,17.50
2022-12-18T16:04:55.964Z,19.00
2022-12-18T16:07:24.924Z,15.50
2022-12-18T16:09:54.192Z,15.00
2022-12-18T16:12:27.246Z,17.00
2022-12-18T16:14:55.630Z,15.50
2022-12-18T16:17:23.974Z,17.00
2022-12-18T16:19:52.286Z,15.00
2022-12-18T16:22:30.255Z,13.00
2022-12-18T16:24:59.600Z,14.00
2022-12-18T16:27:28.134Z,15.25
2022-12-18T16:29:56.727Z,13.75
2022-12-18T16:32:25.110Z,14.75
2022-12-18T16:34:53.394Z,18.00
2022-12-18T16:37:21.709Z,14.00
2022-12-18T16:39:50.045Z,14.00
2022-12-18T16:42:21.351Z,14.25
2022-12-18T16:44:51.330Z,12.75
2022-12-18T16:47:20.590Z,12.25
2022-12-18T16:49:52.765Z,13.75
2022-12-18T16:52:21.825Z,14.50
2022-12-18T16:54:50.429Z,12.75
2022-12-18T16:57:24.667Z,14.75
2022-12-18T16:59:54.274Z,14.50
2022-12-18T17:02:25.877Z,13.50
2022-12-18T17:04:57.734Z,13.25
2022-12-18T17:07:26.821Z,12.00
2022-12-18T17:09:55.752Z,11.00
2022-12-18T17:12:24.659Z,15.50
2022-12-18T17:14:53.001Z,12.75
2022-12-18T17:17:22.812Z,16.50
2022-12-18T17:19:53.481Z,13.00
2022-12-18T17:22:24.221Z,13.75
2022-12-18T17:24:52.763Z,14.25
2022-12-18T17:27:21.177Z,13.00
2022-12-18T17:29:49.484Z,12.75
2022-12-18T17:32:19.257Z,14.50
2022-12-18T17:34:47.610Z,12.00
2022-12-18T17:37:16.533Z,13.25
2022-12-18T17:39:45.026Z,14.25
2022-12-18T17:42:15.368Z,15.25
2022-12-18T17:44:45.275Z,12.50
2022-12-18T17:47:14.759Z,11.25
2022-12-18T17:49:43.272Z,11.50
2022-12-18T17:52:11.975Z,12.00
2022-12-18T17:54:42.797Z,11.75
2022-12-18T17:57:11.582Z,11.25
2022-12-18T17:59:39.895Z,11.00
2022-12-18T18:02:08.657Z,11.50
2022-12-18T18:04:37.221Z,13.75
2022-12-18T18:07:05.566Z,13.75
2022-12-18T18:09:34.000Z,11.50
2022-12-18T18:12:20.635Z,12.25
2022-12-18T18:14:48.979Z,12.50
2022-12-18T18:17:17.803Z,14.75
2022-12-18T18:19:49.031Z,9.50
2022-12-18T18:22:18.830Z,14.00
2022-12-18T18:24:48.391Z,10.00
2022-12-18T18:27:17.293Z,13.75
2022-12-18T18:29:45.859Z,11.50
2022-12-18T18:32:14.236Z,12.75
2022-12-18T18:34:42.885Z,12.00
2022-12-18T18:37:12.958Z,14.25
2022-12-18T18:39:41.364Z,10.25
2022-12-18T18:42:09.685Z,11.50
2022-12-18T18:44:38.329Z,13.00
2022-12-18T18:47:07.410Z,11.25
2022-12-18T18:49:38.107Z,12.50
2022-12-18T18:52:08.122Z,10.50
2022-12-18T18:54:36.536Z,12.00
2022-12-18T18:57:20.493Z,10.50
2022-12-18T18:59:49.614Z,11.00
2022-12-18T19:02:18.896Z,12.50
2022-12-18T19:04:47.485Z,15.00
2022-12-18T19:07:22.315Z,11.75
2022-12-18T19:10:05.120Z,12.00
2022-12-18T19:12:53.001Z,14.25
2022-12-18T19:15:21.752Z,12.00
2022-12-18T19:17:50.056Z,15.00
2022-12-18T19:20:19.151Z,13.00
2022-12-18T19:22:54.760Z,12.00
2022-12-18T19:25:38.599Z,13.25
2022-12-18T19:28:18.152Z,11.00
2022-12-18T19:30:51.002Z,14.25
2022-12-18T19:33:42.392Z,13.50
2022-12-18T19:36:14.381Z,12.25
2022-12-18T19:38:44.958Z,13.50
2022-12-18T19:41:14.703Z,14.00
2022-12-18T19:43:43.730Z,17.00
2022-12-18T19:46:15.673Z,13.50
2022-12-18T19:48:46.047Z,14.00
2022-12-18T19:51:28.772Z,12.25
2022-12-18T19:54:00.548Z,13.50
2022-12-18T19:56:33.016Z,19.00
2022-12-18T19:59:02.351Z,17.50
2022-12-18T20:01:31.601Z,14.00
2022-12-18T20:04:01.128Z,15.25
2022-12-18T20:06:32.899Z,14.25
2022-12-18T20:09:04.655Z,12.00
2022-12-18T20:11:34.711Z,14.50
2022-12-18T20:14:09.864Z,15.75
2022-12-18T20:16:38.449Z,15.50
2022-12-18T20:19:07.915Z,15.75
2022-12-18T20:21:36.928Z,17.50
2022-12-18T20:24:05.427Z,14.25
2022-12-18T20:26:33.891Z,16.00
2022-12-18T20:29:02.451Z,14.75
2022-12-18T20:31:31.089Z,15.00
2022-12-18T20:34:01.604Z,15.75
2022-12-18T20:36:32.921Z,14.00
2022-12-18T20:39:07.477Z,14.75
2022-12-18T20:41:38.958Z,14.75
2022-12-18T20:44:20.659Z,15.25
2022-12-18T20:46:57.302Z,14.50
2022-12-18T20:49:27.258Z,12.50
2022-12-18T20:51:57.547Z,13.50
2022-12-18T20:54:27.991Z,14.25
2022-12-18T20:56:57.194Z,15.75
2022-12-18T20:59:26.569Z,12.75
2022-12-18T21:01:55.365Z,14.50
2022-12-18T21:04:24.346Z,14.25
2022-12-18T21:07:00.734Z,16.00
2022-12-18T21:09:37.402Z,17.75
2022-12-18T21:12:41.692Z,15.50
2022-12-18T21:15:16.872Z,13.00
2022-12-18T21:17:45.365Z,14.25
2022-12-18T21:20:18.019Z,15.25
2022-12-18T21:22:48.142Z,15.00
2022-12-18T21:25:16.454Z,13.50
2022-12-18T21:27:44.880Z,17.00
2022-12-18T21:30:14.812Z,15.50
2022-12-18T21:32:43.176Z,15.50
2022-12-18T21:35:11.489Z,14.75
2022-12-18T21:37:39.792Z,14.50
2022-12-18T21:40:08.954Z,11.75
2022-12-18T21:42:55.729Z,14.00
2022-12-18T21:45:24.122Z,14.00
2022-12-18T21:47:52.451Z,10.00
2022-12-18T21:50:20.779Z,15.00
2022-12-18T21:52:49.113Z,12.50
2022-12-18T21:55:17.434Z,13.50
2022-12-18T21:57:45.743Z,13.00
2022-12-18T22:00:18.488Z,14.50
2022-12-18T22:03:00.486Z,14.50
2022-12-18T22:05:37.760Z,13.00
2022-12-18T22:08:07.631Z,13.25
2022-12-18T22:10:36.237Z,15.75
2022-12-18T22:13:05.661Z,12.00
2022-12-18T22:15:34.283Z,12.25
2022-12-18T22:18:02.962Z,10.00
2022-12-18T22:20:31.390Z,14.50
2022-12-18T22:23:03.935Z,14.00
2022-12-18T22:25:36.270Z,13.50
2022-12-18T22:28:26.588Z,13.50
2022-12-18T22:30:59.218Z,14.25
2022-12-18T22:33:28.501Z,12.00
2022-12-18T22:35:57.118Z,13.25
2022-12-18T22:38:25.405Z,13.50
2022-12-18T22:40:53.748Z,15.50
2022-12-18T22:43:22.337Z,14.25
2022-12-18T22:45:50.662Z,18.50
2022-12-18T22:48:19.025Z,17.50
2022-12-18T22:50:47.480Z,16.75
2022-12-18T22:53:17.531Z,19.50
2022-12-18T22:55:45.884Z,16.75
2022-12-18T22:58:14.229Z,15.25
2022-12-18T23:00:42.615Z,17.75
2022-12-18T23:03:11.056Z,15.25
2022-12-18T23:05:39.680Z,17.25
2022-12-18T23:08:07.989Z,19.75
2022-12-18T23:10:39.626Z,16.75
2022-12-18T23:13:08.136Z,15.25
2022-12-18T23:15:36.642Z,15.50
2022-12-18T23:18:05.197Z,18.00
2022-12-18T23:20:33.501Z,18.00
2022-12-18T23:23:02.475Z,17.00
2022-12-18T23:25:30.769Z,15.75
2022-12-18T23:27:59.054Z,18.75
2022-12-18T23:30:27.375Z,17.00
2022-12-18T23:32:55.700Z,18.25
2022-12-18T23:35:24.297Z,22.50
2022-12-18T23:38:00.195Z,20.75
2022-12-18T23:40:30.295Z,17.25
2022-12-18T23:43:02.091Z,18.50
2022-12-18T23:45:30.445Z,20.50
2022-12-18T23:47:58.805Z,17.25
2022-12-18T23:50:29.704Z,17.00
2022-12-18T23:53:04.832Z,22.00
2022-12-18T23:55:35.172Z,17.50
2022-12-18T23:58:03.586Z,17.75
